Terminal Aerodrome Forecast
Issued by NWS

Home | Current Version | Previous Version | Text Only | Print | Product List | Glossary On
Versions: 1 2 3 4 5 6 7 8 9 10 11 12 13 14 15 16 17 18 19 20 21 22
000
FTUS45 KBOI 041120
TAFTWF
TAF
KTWF 041120Z 0412/0512 19009KT P6SM SCT110
     FM041500 VRB06KT P6SM SCT110
     FM042100 05007KT P6SM VCTS SCT090CB BKN200
      TEMPO 0500/0503 VRB20G30KT 6SM BLDU
     FM050400 18010KT P6SM SCT110 BKN200=

USA.gov is the U.S. government's official web portal to all federal, state and local government web resources and services.